Sibirskiy-2112 — UBXE8 — position and weather

sailwx.info

Track history (hours):
 
Tides and Currents Weather Stations Pressure Air Temp Water Temp Dewpoint Dewpoint Depression Visibility Wind Speed Wind Dir Waves Ship Positions

Sibirskiy-2112

Last reported at 2016-Feb-02 23:11 UTC. Time now 2016-Feb-08 08:15 UTC.
Position N 38°47' E 008°43'.

Length 129 m; draft 3.8 m.

Type: Cargo ship. MMSI: 273342420.

Date/timePositionNaut miles runAvg speedWind from/ knotsBaromVisibWave heightAir tempDewpointWater temp
2016-Feb-02 23:11N 38°47' E 008°43'5 8.2
2016-Feb-02 22:31N 38°47' E 008°50'186 7.7
2016-Feb-01 22:23N 38°20' E 012°45'7 7.8
2016-Feb-01 21:32N 38°19' E 012°54'7 7.5
2016-Feb-01 20:33N 38°18' E 013°03'7 7.1
2016-Feb-01 19:33N 38°17' E 013°12'7 6.6
2016-Feb-01 18:33N 38°16' E 013°20'5 5.1
2016-Feb-01 17:33N 38°12' E 013°23'2 2.3
2016-Feb-01 16:31N 38°09' E 013°23'0 0.0
2016-Feb-01 15:31N 38°09' E 013°23'0 0.0
2016-Feb-01 14:31N 38°09' E 013°23'0 0.0
2016-Feb-01 13:31N 38°09' E 013°23'0 0.0
2016-Feb-01 12:31N 38°09' E 013°23'0 0.0
2016-Feb-01 11:31N 38°09' E 013°23'0 0.0
2016-Feb-01 10:31N 38°09' E 013°23'0 0.1
2016-Feb-01 09:31N 38°09' E 013°23'0 0.0
2016-Feb-01 08:31N 38°09' E 013°23'0 0.0
2016-Feb-01 07:31N 38°09' E 013°23'0 0.0
2016-Feb-01 06:31N 38°09' E 013°23'0 0.0
2016-Feb-01 05:31N 38°09' E 013°23'0 0.0
2016-Feb-01 04:32N 38°09' E 013°23'1 0.5
2016-Feb-01 03:33N 38°10' E 013°24'6 5.9
2016-Feb-01 02:33N 38°12' E 013°31'6 6.5
2016-Feb-01 01:33N 38°12' E 013°39'7 6.8
2016-Feb-01 00:29N 38°13' E 013°48'52 7.1
2016-Jan-31 17:08N 38°17' E 014°55'5 7.8
2016-Jan-31 16:33N 38°17' E 015°01'8 8.1
2016-Jan-31 15:32N 38°18' E 015°11'8 8.3
2016-Jan-31 14:33N 38°19' E 015°21'8 8.0
2016-Jan-31 13:32N 38°20' E 015°32'8 6.0
2016-Jan-31 12:09N 38°15' E 015°41'3 5.7
2016-Jan-31 11:34N 38°13' E 015°37'7 7.0
2016-Jan-31 10:31N 38°06' E 015°37'9 6.6
2016-Jan-31 09:07N 37°57' E 015°39'  
2016-Jan-26 10:27N 40°59' E 028°59'  
Track history (hours):
 
Tides and Currents Weather Stations Pressure Air Temp Water Temp Dewpoint Dewpoint Depression Visibility Wind Speed Wind Dir Waves Ship Positions

Sibirskiy-2112

Last reported at 2016-Feb-02 23:11 UTC. Time now 2016-Feb-08 08:15 UTC.
Position N 38°47' E 008°43'.

Length 129 m; draft 3.8 m.

Type: Cargo ship. MMSI: 273342420.

Date/timePositionNaut miles runAvg speedWind from/ knotsBaromVisibWave heightAir tempDewpointWater temp
2016-Feb-02 23:11N 38°47' E 008°43'5 8.2
2016-Feb-02 22:31N 38°47' E 008°50'186 7.7
2016-Feb-01 22:23N 38°20' E 012°45'7 7.8
2016-Feb-01 21:32N 38°19' E 012°54'7 7.5
2016-Feb-01 20:33N 38°18' E 013°03'7 7.1
2016-Feb-01 19:33N 38°17' E 013°12'7 6.6
2016-Feb-01 18:33N 38°16' E 013°20'5 5.1
2016-Feb-01 17:33N 38°12' E 013°23'2 2.3
2016-Feb-01 16:31N 38°09' E 013°23'0 0.0
2016-Feb-01 15:31N 38°09' E 013°23'0 0.0
2016-Feb-01 14:31N 38°09' E 013°23'0 0.0
2016-Feb-01 13:31N 38°09' E 013°23'0 0.0
2016-Feb-01 12:31N 38°09' E 013°23'0 0.0
2016-Feb-01 11:31N 38°09' E 013°23'0 0.0
2016-Feb-01 10:31N 38°09' E 013°23'0 0.1
2016-Feb-01 09:31N 38°09' E 013°23'0 0.0
2016-Feb-01 08:31N 38°09' E 013°23'0 0.0
2016-Feb-01 07:31N 38°09' E 013°23'0 0.0
2016-Feb-01 06:31N 38°09' E 013°23'0 0.0
2016-Feb-01 05:31N 38°09' E 013°23'0 0.0
2016-Feb-01 04:32N 38°09' E 013°23'1 0.5
2016-Feb-01 03:33N 38°10' E 013°24'6 5.9
2016-Feb-01 02:33N 38°12' E 013°31'6 6.5
2016-Feb-01 01:33N 38°12' E 013°39'7 6.8
2016-Feb-01 00:29N 38°13' E 013°48'52 7.1
2016-Jan-31 17:08N 38°17' E 014°55'5 7.8
2016-Jan-31 16:33N 38°17' E 015°01'8 8.1
2016-Jan-31 15:32N 38°18' E 015°11'8 8.3
2016-Jan-31 14:33N 38°19' E 015°21'8 8.0
2016-Jan-31 13:32N 38°20' E 015°32'8 6.0
2016-Jan-31 12:09N 38°15' E 015°41'3 5.7
2016-Jan-31 11:34N 38°13' E 015°37'7 7.0
2016-Jan-31 10:31N 38°06' E 015°37'9 6.6
2016-Jan-31 09:07N 37°57' E 015°39'  
2016-Jan-26 10:27N 40°59' E 028°59'  

Dump ship's entire track history